sensor_id;sensor_type;location;lat;lon;timestamp;P1;durP1;ratioP1;P2;durP2;ratioP2
20772;SDS011;10546;50.674;4.616;2024-01-07T07:50:21;64.43;;;22.37;;
20772;SDS011;10546;50.674;4.616;2024-01-07T07:52:47;56.40;;;21.57;;
20772;SDS011;10546;50.674;4.616;2024-01-07T07:55:13;49.93;;;18.17;;
20772;SDS011;10546;50.674;4.616;2024-01-07T07:57:38;63.00;;;22.93;;
20772;SDS011;10546;50.674;4.616;2024-01-07T08:00:05;66.57;;;21.90;;
20772;SDS011;10546;50.674;4.616;2024-01-07T08:02:32;57.93;;;21.90;;
20772;SDS011;10546;50.674;4.616;2024-01-07T08:04:57;48.83;;;16.67;;
20772;SDS011;10546;50.674;4.616;2024-01-07T08:07:23;51.83;;;19.37;;
20772;SDS011;10546;50.674;4.616;2024-01-07T08:09:49;74.90;;;24.57;;
20772;SDS011;10546;50.674;4.616;2024-01-07T08:12:14;70.23;;;23.80;;
20772;SDS011;10546;50.674;4.616;2024-01-07T08:14:40;105.47;;;24.83;;
20772;SDS011;10546;50.674;4.616;2024-01-07T08:17:08;62.70;;;22.07;;
20772;SDS011;10546;50.674;4.616;2024-01-07T08:19:35;60.97;;;22.27;;
20772;SDS011;10546;50.674;4.616;2024-01-07T08:22:01;61.20;;;21.43;;
20772;SDS011;10546;50.674;4.616;2024-01-07T08:24:26;55.53;;;18.43;;
20772;SDS011;10546;50.674;4.616;2024-01-07T08:26:52;51.93;;;20.40;;
20772;SDS011;10546;50.674;4.616;2024-01-07T08:29:18;49.87;;;19.50;;
20772;SDS011;10546;50.674;4.616;2024-01-07T08:31:44;52.80;;;19.60;;
20772;SDS011;10546;50.674;4.616;2024-01-07T08:34:09;56.57;;;21.07;;
20772;SDS011;10546;50.674;4.616;2024-01-07T08:36:35;43.03;;;15.87;;
20772;SDS011;10546;50.674;4.616;2024-01-07T08:39:01;54.60;;;20.07;;
20772;SDS011;10546;50.674;4.616;2024-01-07T08:41:26;50.83;;;19.97;;
20772;SDS011;10546;50.674;4.616;2024-01-07T08:43:52;47.10;;;16.90;;
20772;SDS011;10546;50.674;4.616;2024-01-07T08:46:21;49.93;;;18.73;;
20772;SDS011;10546;50.674;4.616;2024-01-07T08:48:46;46.53;;;17.77;;
20772;SDS011;10546;50.674;4.616;2024-01-07T08:51:12;51.50;;;18.13;;
20772;SDS011;10546;50.674;4.616;2024-01-07T08:53:38;47.43;;;17.47;;
20772;SDS011;10546;50.674;4.616;2024-01-07T08:56:05;37.67;;;15.80;;
20772;SDS011;10546;50.674;4.616;2024-01-07T08:58:31;47.47;;;18.37;;
20772;SDS011;10546;50.674;4.616;2024-01-07T09:00:57;45.67;;;18.03;;
20772;SDS011;10546;50.674;4.616;2024-01-07T09:03:23;49.40;;;21.03;;
20772;SDS011;10546;50.674;4.616;2024-01-07T09:05:48;50.10;;;19.57;;
20772;SDS011;10546;50.674;4.616;2024-01-07T09:08:14;40.10;;;16.87;;
20772;SDS011;10546;50.674;4.616;2024-01-07T09:10:40;46.10;;;17.87;;
20772;SDS011;10546;50.674;4.616;2024-01-07T09:13:09;42.50;;;17.97;;
20772;SDS011;10546;50.674;4.616;2024-01-07T09:15:35;40.80;;;16.63;;
20772;SDS011;10546;50.674;4.616;2024-01-07T09:18:01;41.20;;;17.77;;
20772;SDS011;10546;50.674;4.616;2024-01-07T09:20:26;33.73;;;14.33;;
20772;SDS011;10546;50.674;4.616;2024-01-07T09:22:52;41.93;;;16.77;;
20772;SDS011;10546;50.674;4.616;2024-01-07T09:25:18;39.50;;;17.93;;
20772;SDS011;10546;50.674;4.616;2024-01-07T09:27:44;41.63;;;18.20;;
20772;SDS011;10546;50.674;4.616;2024-01-07T09:30:10;36.80;;;17.40;;
20772;SDS011;10546;50.674;4.616;2024-01-07T09:32:39;30.43;;;15.33;;
20772;SDS011;10546;50.674;4.616;2024-01-07T09:35:06;36.03;;;15.93;;
20772;SDS011;10546;50.674;4.616;2024-01-07T09:37:31;33.73;;;14.23;;
20772;SDS011;10546;50.674;4.616;2024-01-07T09:39:57;23.33;;;11.57;;
20772;SDS011;10546;50.674;4.616;2024-01-07T09:42:23;34.63;;;15.33;;
20772;SDS011;10546;50.674;4.616;2024-01-07T09:44:50;33.90;;;15.60;;
20772;SDS011;10546;50.674;4.616;2024-01-07T09:47:16;30.80;;;15.63;;
20772;SDS011;10546;50.674;4.616;2024-01-07T09:49:42;31.07;;;13.50;;
20772;SDS011;10546;50.674;4.616;2024-01-07T09:52:10;35.23;;;15.90;;
20772;SDS011;10546;50.674;4.616;2024-01-07T09:54:37;27.00;;;12.80;;
20772;SDS011;10546;50.674;4.616;2024-01-07T09:57:04;26.43;;;13.47;;
20772;SDS011;10546;50.674;4.616;2024-01-07T09:59:34;36.77;;;17.40;;
20772;SDS011;10546;50.674;4.616;2024-01-07T10:02:01;38.57;;;16.97;;
20772;SDS011;10546;50.674;4.616;2024-01-07T10:04:28;35.53;;;17.40;;
20772;SDS011;10546;50.674;4.616;2024-01-07T10:06:55;33.87;;;13.90;;
20772;SDS011;10546;50.674;4.616;2024-01-07T10:09:25;38.60;;;15.17;;
20772;SDS011;10546;50.674;4.616;2024-01-07T10:11:54;44.67;;;19.17;;
20772;SDS011;10546;50.674;4.616;2024-01-07T10:14:20;34.30;;;15.17;;
20772;SDS011;10546;50.674;4.616;2024-01-07T10:16:50;38.47;;;17.77;;
20772;SDS011;10546;50.674;4.616;2024-01-07T10:19:20;51.80;;;21.80;;
20772;SDS011;10546;50.674;4.616;2024-01-07T10:21:57;38.63;;;17.07;;
20772;SDS011;10546;50.674;4.616;2024-01-07T10:24:24;36.53;;;17.00;;
20772;SDS011;10546;50.674;4.616;2024-01-07T10:26:50;32.90;;;14.97;;
20772;SDS011;10546;50.674;4.616;2024-01-07T10:29:16;33.03;;;15.53;;
20772;SDS011;10546;50.674;4.616;2024-01-07T10:31:42;35.83;;;17.93;;
20772;SDS011;10546;50.674;4.616;2024-01-07T10:34:11;30.73;;;15.23;;
20772;SDS011;10546;50.674;4.616;2024-01-07T10:36:38;34.03;;;16.77;;
20772;SDS011;10546;50.674;4.616;2024-01-07T10:39:06;36.90;;;17.20;;
20772;SDS011;10546;50.674;4.616;2024-01-07T10:41:32;38.03;;;18.47;;
20772;SDS011;10546;50.674;4.616;2024-01-07T10:44:01;37.87;;;17.37;;
20772;SDS011;10546;50.674;4.616;2024-01-07T10:46:28;36.73;;;17.57;;
20772;SDS011;10546;50.674;4.616;2024-01-07T10:48:58;24.97;;;13.37;;
20772;SDS011;10546;50.674;4.616;2024-01-07T10:51:28;33.77;;;15.67;;
20772;SDS011;10546;50.674;4.616;2024-01-07T10:53:57;33.87;;;15.33;;
20772;SDS011;10546;50.674;4.616;2024-01-07T10:56:24;34.40;;;17.20;;
20772;SDS011;10546;50.674;4.616;2024-01-07T10:58:54;29.20;;;13.63;;
20772;SDS011;10546;50.674;4.616;2024-01-07T11:01:21;32.07;;;16.43;;
20772;SDS011;10546;50.674;4.616;2024-01-07T11:06:46;34.57;;;18.57;;
20772;SDS011;10546;50.674;4.616;2024-01-07T11:12:14;27.33;;;13.77;;
20772;SDS011;10546;50.674;4.616;2024-01-07T11:14:41;38.37;;;18.27;;
20772;SDS011;10546;50.674;4.616;2024-01-07T11:17:10;31.37;;;16.30;;
20772;SDS011;10546;50.674;4.616;2024-01-07T11:19:38;34.53;;;16.30;;
20772;SDS011;10546;50.674;4.616;2024-01-07T11:22:29;36.63;;;16.93;;
20772;SDS011;10546;50.674;4.616;2024-01-07T11:24:55;32.70;;;17.37;;
20772;SDS011;10546;50.674;4.616;2024-01-07T11:27:24;31.97;;;13.63;;
20772;SDS011;10546;50.674;4.616;2024-01-07T11:29:57;33.43;;;16.63;;
20772;SDS011;10546;50.674;4.616;2024-01-07T11:32:30;28.73;;;14.00;;
20772;SDS011;10546;50.674;4.616;2024-01-07T11:34:56;33.90;;;16.20;;
20772;SDS011;10546;50.674;4.616;2024-01-07T11:37:24;39.03;;;18.93;;
20772;SDS011;10546;50.674;4.616;2024-01-07T11:39:53;43.87;;;17.87;;
20772;SDS011;10546;50.674;4.616;2024-01-07T11:42:20;31.47;;;15.33;;
20772;SDS011;10546;50.674;4.616;2024-01-07T11:44:48;35.87;;;17.40;;
20772;SDS011;10546;50.674;4.616;2024-01-07T11:47:23;38.43;;;17.80;;
20772;SDS011;10546;50.674;4.616;2024-01-07T11:49:53;35.57;;;15.63;;
20772;SDS011;10546;50.674;4.616;2024-01-07T11:52:23;37.73;;;17.03;;
20772;SDS011;10546;50.674;4.616;2024-01-07T11:54:52;32.33;;;15.37;;
20772;SDS011;10546;50.674;4.616;2024-01-07T11:57:22;35.07;;;15.83;;
20772;SDS011;10546;50.674;4.616;2024-01-07T11:59:48;42.40;;;18.03;;
20772;SDS011;10546;50.674;4.616;2024-01-07T12:02:13;37.57;;;15.97;;
20772;SDS011;10546;50.674;4.616;2024-01-07T12:04:40;31.97;;;14.57;;
20772;SDS011;10546;50.674;4.616;2024-01-07T12:07:06;52.47;;;19.67;;
20772;SDS011;10546;50.674;4.616;2024-01-07T12:09:32;43.20;;;17.90;;
20772;SDS011;10546;50.674;4.616;2024-01-07T12:11:57;44.80;;;18.83;;
20772;SDS011;10546;50.674;4.616;2024-01-07T12:14:23;40.30;;;17.53;;
20772;SDS011;10546;50.674;4.616;2024-01-07T12:16:50;37.80;;;14.73;;
20772;SDS011;10546;50.674;4.616;2024-01-07T12:19:16;42.60;;;15.83;;
20772;SDS011;10546;50.674;4.616;2024-01-07T12:21:42;42.47;;;19.30;;
20772;SDS011;10546;50.674;4.616;2024-01-07T12:24:07;27.83;;;12.23;;
20772;SDS011;10546;50.674;4.616;2024-01-07T12:26:33;40.13;;;16.53;;
20772;SDS011;10546;50.674;4.616;2024-01-07T12:28:59;43.93;;;19.77;;
20772;SDS011;10546;50.674;4.616;2024-01-07T12:31:32;45.77;;;19.50;;
20772;SDS011;10546;50.674;4.616;2024-01-07T12:33:59;42.60;;;19.23;;
20772;SDS011;10546;50.674;4.616;2024-01-07T12:36:25;34.37;;;15.10;;
20772;SDS011;10546;50.674;4.616;2024-01-07T12:38:51;36.53;;;16.10;;
20772;SDS011;10546;50.674;4.616;2024-01-07T12:41:21;42.10;;;18.17;;
20772;SDS011;10546;50.674;4.616;2024-01-07T12:43:48;29.60;;;13.97;;
20772;SDS011;10546;50.674;4.616;2024-01-07T12:46:14;39.60;;;17.03;;
20772;SDS011;10546;50.674;4.616;2024-01-07T12:48:40;50.03;;;21.97;;
20772;SDS011;10546;50.674;4.616;2024-01-07T12:51:06;39.23;;;15.97;;
20772;SDS011;10546;50.674;4.616;2024-01-07T12:53:31;48.93;;;20.97;;
20772;SDS011;10546;50.674;4.616;2024-01-07T12:55:57;48.60;;;22.73;;
20772;SDS011;10546;50.674;4.616;2024-01-07T12:58:23;52.43;;;21.77;;
20772;SDS011;10546;50.674;4.616;2024-01-07T13:00:48;41.50;;;18.03;;
20772;SDS011;10546;50.674;4.616;2024-01-07T13:03:14;44.87;;;20.50;;
20772;SDS011;10546;50.674;4.616;2024-01-07T13:05:46;49.90;;;20.93;;
20772;SDS011;10546;50.674;4.616;2024-01-07T13:08:15;51.20;;;23.37;;
20772;SDS011;10546;50.674;4.616;2024-01-07T13:10:43;35.50;;;16.67;;
20772;SDS011;10546;50.674;4.616;2024-01-07T13:13:09;39.47;;;19.63;;
20772;SDS011;10546;50.674;4.616;2024-01-07T13:15:36;47.20;;;21.43;;
20772;SDS011;10546;50.674;4.616;2024-01-07T13:18:02;34.93;;;17.17;;
20772;SDS011;10546;50.674;4.616;2024-01-07T13:20:27;45.53;;;19.97;;
20772;SDS011;10546;50.674;4.616;2024-01-07T13:22:53;46.90;;;21.37;;
20772;SDS011;10546;50.674;4.616;2024-01-07T13:25:19;37.87;;;18.33;;
20772;SDS011;10546;50.674;4.616;2024-01-07T13:27:44;38.03;;;17.00;;
20772;SDS011;10546;50.674;4.616;2024-01-07T13:30:10;41.93;;;19.20;;
20772;SDS011;10546;50.674;4.616;2024-01-07T13:32:36;42.00;;;20.63;;
20772;SDS011;10546;50.674;4.616;2024-01-07T13:35:05;38.93;;;19.73;;
20772;SDS011;10546;50.674;4.616;2024-01-07T13:37:35;38.27;;;17.57;;
20772;SDS011;10546;50.674;4.616;2024-01-07T13:40:07;39.33;;;17.53;;
20772;SDS011;10546;50.674;4.616;2024-01-07T13:42:35;41.70;;;18.27;;
20772;SDS011;10546;50.674;4.616;2024-01-07T13:45:04;35.43;;;17.10;;
20772;SDS011;10546;50.674;4.616;2024-01-07T13:47:30;35.80;;;17.53;;
20772;SDS011;10546;50.674;4.616;2024-01-07T13:49:56;32.47;;;16.53;;
20772;SDS011;10546;50.674;4.616;2024-01-07T13:52:22;37.73;;;18.60;;
20772;SDS011;10546;50.674;4.616;2024-01-07T13:54:48;32.60;;;15.10;;
20772;SDS011;10546;50.674;4.616;2024-01-07T13:57:13;40.60;;;20.50;;
20772;SDS011;10546;50.674;4.616;2024-01-07T13:59:39;31.27;;;14.73;;
20772;SDS011;10546;50.674;4.616;2024-01-07T14:02:08;28.93;;;13.67;;
20772;SDS011;10546;50.674;4.616;2024-01-07T14:04:34;34.67;;;17.00;;
20772;SDS011;10546;50.674;4.616;2024-01-07T14:07:00;37.20;;;18.70;;
20772;SDS011;10546;50.674;4.616;2024-01-07T14:09:25;36.70;;;17.97;;
20772;SDS011;10546;50.674;4.616;2024-01-07T14:11:51;36.07;;;18.33;;
20772;SDS011;10546;50.674;4.616;2024-01-07T14:14:17;29.63;;;15.93;;
20772;SDS011;10546;50.674;4.616;2024-01-07T14:16:44;27.77;;;13.90;;
20772;SDS011;10546;50.674;4.616;2024-01-07T14:19:10;27.00;;;13.90;;
20772;SDS011;10546;50.674;4.616;2024-01-07T14:21:36;26.80;;;13.90;;
20772;SDS011;10546;50.674;4.616;2024-01-07T14:24:02;27.07;;;14.60;;
20772;SDS011;10546;50.674;4.616;2024-01-07T14:26:28;35.23;;;17.33;;
20772;SDS011;10546;50.674;4.616;2024-01-07T14:28:54;42.23;;;17.93;;
20772;SDS011;10546;50.674;4.616;2024-01-07T14:31:19;41.47;;;20.60;;
20772;SDS011;10546;50.674;4.616;2024-01-07T14:33:45;34.43;;;19.27;;
20772;SDS011;10546;50.674;4.616;2024-01-07T14:36:11;25.10;;;13.57;;
20772;SDS011;10546;50.674;4.616;2024-01-07T14:38:45;25.50;;;14.40;;
20772;SDS011;10546;50.674;4.616;2024-01-07T14:41:13;25.87;;;13.97;;
20772;SDS011;10546;50.674;4.616;2024-01-07T14:43:39;33.17;;;15.30;;
20772;SDS011;10546;50.674;4.616;2024-01-07T14:46:08;29.07;;;14.40;;
20772;SDS011;10546;50.674;4.616;2024-01-07T14:48:35;21.83;;;12.27;;
20772;SDS011;10546;50.674;4.616;2024-01-07T14:51:01;28.20;;;13.93;;
20772;SDS011;10546;50.674;4.616;2024-01-07T14:53:27;31.17;;;15.83;;
20772;SDS011;10546;50.674;4.616;2024-01-07T14:55:54;30.90;;;15.57;;
20772;SDS011;10546;50.674;4.616;2024-01-07T14:58:20;29.90;;;15.53;;
20772;SDS011;10546;50.674;4.616;2024-01-07T15:00:48;21.13;;;11.27;;
20772;SDS011;10546;50.674;4.616;2024-01-07T15:03:13;23.90;;;11.87;;
20772;SDS011;10546;50.674;4.616;2024-01-07T15:05:39;26.43;;;12.70;;
20772;SDS011;10546;50.674;4.616;2024-01-07T15:08:06;25.73;;;12.93;;
20772;SDS011;10546;50.674;4.616;2024-01-07T15:10:32;18.00;;;9.70;;
20772;SDS011;10546;50.674;4.616;2024-01-07T15:12:57;25.47;;;15.13;;
20772;SDS011;10546;50.674;4.616;2024-01-07T15:15:23;28.43;;;14.43;;
20772;SDS011;10546;50.674;4.616;2024-01-07T15:17:54;23.93;;;11.83;;
20772;SDS011;10546;50.674;4.616;2024-01-07T15:20:23;26.63;;;12.43;;
20772;SDS011;10546;50.674;4.616;2024-01-07T15:22:49;38.57;;;14.17;;
20772;SDS011;10546;50.674;4.616;2024-01-07T15:25:18;31.43;;;17.00;;
20772;SDS011;10546;50.674;4.616;2024-01-07T15:27:44;31.80;;;14.40;;
20772;SDS011;10546;50.674;4.616;2024-01-07T15:30:10;25.53;;;13.27;;
20772;SDS011;10546;50.674;4.616;2024-01-07T15:32:36;26.43;;;12.57;;
20772;SDS011;10546;50.674;4.616;2024-01-07T15:35:03;25.70;;;13.23;;
20772;SDS011;10546;50.674;4.616;2024-01-07T15:37:34;29.40;;;14.73;;
20772;SDS011;10546;50.674;4.616;2024-01-07T15:39:59;23.10;;;11.70;;
20772;SDS011;10546;50.674;4.616;2024-01-07T15:42:26;21.93;;;10.00;;
20772;SDS011;10546;50.674;4.616;2024-01-07T15:44:51;27.73;;;13.03;;
20772;SDS011;10546;50.674;4.616;2024-01-07T15:47:18;22.63;;;10.83;;
20772;SDS011;10546;50.674;4.616;2024-01-07T15:49:43;24.17;;;11.43;;
20772;SDS011;10546;50.674;4.616;2024-01-07T15:52:09;30.03;;;14.60;;
20772;SDS011;10546;50.674;4.616;2024-01-07T15:54:35;25.77;;;14.00;;
20772;SDS011;10546;50.674;4.616;2024-01-07T15:57:00;25.07;;;12.90;;
20772;SDS011;10546;50.674;4.616;2024-01-07T15:59:27;24.03;;;13.00;;
20772;SDS011;10546;50.674;4.616;2024-01-07T16:01:53;18.60;;;10.23;;
20772;SDS011;10546;50.674;4.616;2024-01-07T16:04:19;19.30;;;9.50;;
20772;SDS011;10546;50.674;4.616;2024-01-07T16:06:44;21.80;;;10.47;;
20772;SDS011;10546;50.674;4.616;2024-01-07T16:09:13;26.87;;;13.83;;
20772;SDS011;10546;50.674;4.616;2024-01-07T16:11:39;20.90;;;11.83;;
20772;SDS011;10546;50.674;4.616;2024-01-07T16:14:06;21.70;;;11.27;;
20772;SDS011;10546;50.674;4.616;2024-01-07T16:16:32;28.90;;;12.73;;
20772;SDS011;10546;50.674;4.616;2024-01-07T16:18:58;31.53;;;10.53;;
20772;SDS011;10546;50.674;4.616;2024-01-07T16:21:24;17.90;;;11.00;;
20772;SDS011;10546;50.674;4.616;2024-01-07T16:23:49;25.07;;;13.77;;
20772;SDS011;10546;50.674;4.616;2024-01-07T16:26:15;15.50;;;9.10;;
20772;SDS011;10546;50.674;4.616;2024-01-07T16:28:42;25.17;;;12.70;;
20772;SDS011;10546;50.674;4.616;2024-01-07T16:31:08;29.63;;;14.30;;
20772;SDS011;10546;50.674;4.616;2024-01-07T16:33:34;21.87;;;11.43;;
20772;SDS011;10546;50.674;4.616;2024-01-07T16:36:00;25.93;;;10.80;;
20772;SDS011;10546;50.674;4.616;2024-01-07T16:38:30;22.23;;;12.17;;
20772;SDS011;10546;50.674;4.616;2024-01-07T16:40:57;15.50;;;9.23;;
20772;SDS011;10546;50.674;4.616;2024-01-07T16:43:23;20.03;;;9.30;;
20772;SDS011;10546;50.674;4.616;2024-01-07T16:45:50;14.93;;;7.53;;
20772;SDS011;10546;50.674;4.616;2024-01-07T16:48:16;15.13;;;8.93;;
20772;SDS011;10546;50.674;4.616;2024-01-07T16:50:43;11.07;;;6.87;;
20772;SDS011;10546;50.674;4.616;2024-01-07T16:53:08;13.60;;;7.80;;
20772;SDS011;10546;50.674;4.616;2024-01-07T16:55:34;12.17;;;6.70;;
20772;SDS011;10546;50.674;4.616;2024-01-07T16:58:00;13.67;;;8.63;;
20772;SDS011;10546;50.674;4.616;2024-01-07T17:00:25;14.77;;;9.07;;
20772;SDS011;10546;50.674;4.616;2024-01-07T17:02:51;13.87;;;7.77;;
20772;SDS011;10546;50.674;4.616;2024-01-07T17:05:17;17.07;;;9.67;;
20772;SDS011;10546;50.674;4.616;2024-01-07T17:07:43;9.27;;;5.77;;
20772;SDS011;10546;50.674;4.616;2024-01-07T17:10:09;13.03;;;8.17;;
20772;SDS011;10546;50.674;4.616;2024-01-07T17:12:34;8.20;;;5.83;;
20772;SDS011;10546;50.674;4.616;2024-01-07T17:15:02;8.17;;;4.80;;
20772;SDS011;10546;50.674;4.616;2024-01-07T17:17:28;11.83;;;5.73;;
20772;SDS011;10546;50.674;4.616;2024-01-07T17:19:54;8.70;;;4.73;;
20772;SDS011;10546;50.674;4.616;2024-01-07T17:22:20;7.37;;;4.87;;
20772;SDS011;10546;50.674;4.616;2024-01-07T17:24:46;9.87;;;5.93;;
20772;SDS011;10546;50.674;4.616;2024-01-07T17:27:11;8.23;;;5.13;;
20772;SDS011;10546;50.674;4.616;2024-01-07T17:29:37;8.07;;;5.00;;
20772;SDS011;10546;50.674;4.616;2024-01-07T17:32:03;8.53;;;4.77;;
20772;SDS011;10546;50.674;4.616;2024-01-07T17:34:29;7.10;;;4.93;;
20772;SDS011;10546;50.674;4.616;2024-01-07T17:36:54;6.50;;;3.83;;
20772;SDS011;10546;50.674;4.616;2024-01-07T17:39:20;6.27;;;3.80;;
20772;SDS011;10546;50.674;4.616;2024-01-07T17:41:46;20.47;;;5.50;;
20772;SDS011;10546;50.674;4.616;2024-01-07T17:44:12;8.60;;;5.10;;
20772;SDS011;10546;50.674;4.616;2024-01-07T17:46:37;12.77;;;6.40;;
20772;SDS011;10546;50.674;4.616;2024-01-07T17:49:03;10.83;;;5.50;;
20772;SDS011;10546;50.674;4.616;2024-01-07T17:51:29;8.17;;;5.53;;
20772;SDS011;10546;50.674;4.616;2024-01-07T17:53:56;9.60;;;5.90;;
20772;SDS011;10546;50.674;4.616;2024-01-07T17:56:23;11.63;;;6.60;;
20772;SDS011;10546;50.674;4.616;2024-01-07T17:58:51;13.00;;;7.60;;
20772;SDS011;10546;50.674;4.616;2024-01-07T18:01:17;9.27;;;5.43;;
20772;SDS011;10546;50.674;4.616;2024-01-07T18:03:43;20.73;;;11.33;;
20772;SDS011;10546;50.674;4.616;2024-01-07T18:06:09;10.13;;;5.73;;
20772;SDS011;10546;50.674;4.616;2024-01-07T18:08:35;12.07;;;7.73;;
20772;SDS011;10546;50.674;4.616;2024-01-07T18:11:02;10.70;;;6.60;;
20772;SDS011;10546;50.674;4.616;2024-01-07T18:13:28;4.60;;;3.87;;
20772;SDS011;10546;50.674;4.616;2024-01-07T18:15:54;5.13;;;3.87;;
20772;SDS011;10546;50.674;4.616;2024-01-07T18:18:19;7.37;;;5.20;;
20772;SDS011;10546;50.674;4.616;2024-01-07T18:20:45;5.97;;;4.40;;
20772;SDS011;10546;50.674;4.616;2024-01-07T18:23:10;6.47;;;4.97;;
20772;SDS011;10546;50.674;4.616;2024-01-07T18:25:38;8.07;;;4.63;;
20772;SDS011;10546;50.674;4.616;2024-01-07T18:28:04;7.47;;;5.43;;
20772;SDS011;10546;50.674;4.616;2024-01-07T18:30:30;8.67;;;5.20;;
20772;SDS011;10546;50.674;4.616;2024-01-07T18:32:56;10.27;;;5.37;;
20772;SDS011;10546;50.674;4.616;2024-01-07T18:35:21;8.40;;;5.37;;
20772;SDS011;10546;50.674;4.616;2024-01-07T18:37:47;12.40;;;5.90;;
20772;SDS011;10546;50.674;4.616;2024-01-07T18:40:15;8.23;;;4.90;;
20772;SDS011;10546;50.674;4.616;2024-01-07T18:42:44;14.40;;;8.03;;
20772;SDS011;10546;50.674;4.616;2024-01-07T18:45:10;10.93;;;5.50;;
20772;SDS011;10546;50.674;4.616;2024-01-07T18:47:36;7.47;;;5.47;;
20772;SDS011;10546;50.674;4.616;2024-01-07T18:50:03;8.93;;;5.43;;
20772;SDS011;10546;50.674;4.616;2024-01-07T18:52:30;8.33;;;5.53;;
20772;SDS011;10546;50.674;4.616;2024-01-07T18:54:56;8.43;;;4.33;;
20772;SDS011;10546;50.674;4.616;2024-01-07T18:57:21;9.73;;;5.63;;
20772;SDS011;10546;50.674;4.616;2024-01-07T18:59:47;10.93;;;6.73;;
20772;SDS011;10546;50.674;4.616;2024-01-07T19:02:13;9.20;;;5.57;;
20772;SDS011;10546;50.674;4.616;2024-01-07T19:04:39;6.73;;;4.93;;
20772;SDS011;10546;50.674;4.616;2024-01-07T19:07:05;10.93;;;6.20;;
20772;SDS011;10546;50.674;4.616;2024-01-07T19:09:31;10.13;;;5.37;;
20772;SDS011;10546;50.674;4.616;2024-01-07T19:11:57;9.03;;;5.83;;
20772;SDS011;10546;50.674;4.616;2024-01-07T19:14:23;17.77;;;8.63;;
20772;SDS011;10546;50.674;4.616;2024-01-07T19:16:48;8.63;;;5.27;;
20772;SDS011;10546;50.674;4.616;2024-01-07T19:19:14;8.57;;;5.43;;
20772;SDS011;10546;50.674;4.616;2024-01-07T19:21:40;10.63;;;6.53;;
20772;SDS011;10546;50.674;4.616;2024-01-07T19:24:06;9.17;;;6.13;;
20772;SDS011;10546;50.674;4.616;2024-01-07T19:26:32;11.60;;;6.53;;
20772;SDS011;10546;50.674;4.616;2024-01-07T19:28:58;9.47;;;5.67;;
20772;SDS011;10546;50.674;4.616;2024-01-07T19:31:26;9.73;;;5.37;;
20772;SDS011;10546;50.674;4.616;2024-01-07T19:33:53;10.53;;;6.37;;
20772;SDS011;10546;50.674;4.616;2024-01-07T19:36:20;10.80;;;6.23;;
20772;SDS011;10546;50.674;4.616;2024-01-07T19:38:49;9.03;;;4.90;;
20772;SDS011;10546;50.674;4.616;2024-01-07T19:41:21;6.53;;;3.83;;
20772;SDS011;10546;50.674;4.616;2024-01-07T19:43:47;8.73;;;5.37;;
20772;SDS011;10546;50.674;4.616;2024-01-07T19:46:24;16.63;;;5.00;;
20772;SDS011;10546;50.674;4.616;2024-01-07T19:48:51;11.00;;;5.67;;
20772;SDS011;10546;50.674;4.616;2024-01-07T19:51:21;9.63;;;6.10;;
20772;SDS011;10546;50.674;4.616;2024-01-07T19:53:47;9.93;;;5.87;;
20772;SDS011;10546;50.674;4.616;2024-01-07T19:56:14;9.30;;;4.73;;
20772;SDS011;10546;50.674;4.616;2024-01-07T19:58:40;6.43;;;4.17;;
20772;SDS011;10546;50.674;4.616;2024-01-07T20:01:06;8.30;;;4.77;;
20772;SDS011;10546;50.674;4.616;2024-01-07T20:03:32;8.83;;;5.47;;
20772;SDS011;10546;50.674;4.616;2024-01-07T20:05:57;8.67;;;5.03;;
20772;SDS011;10546;50.674;4.616;2024-01-07T20:08:23;13.77;;;6.03;;
20772;SDS011;10546;50.674;4.616;2024-01-07T20:10:49;9.37;;;5.60;;
20772;SDS011;10546;50.674;4.616;2024-01-07T20:13:14;9.47;;;4.90;;
20772;SDS011;10546;50.674;4.616;2024-01-07T20:15:40;10.43;;;5.23;;
20772;SDS011;10546;50.674;4.616;2024-01-07T20:18:07;5.10;;;3.70;;
20772;SDS011;10546;50.674;4.616;2024-01-07T20:20:33;8.13;;;4.53;;
20772;SDS011;10546;50.674;4.616;2024-01-07T20:22:59;11.40;;;6.43;;
20772;SDS011;10546;50.674;4.616;2024-01-07T20:25:25;4.53;;;3.17;;
20772;SDS011;10546;50.674;4.616;2024-01-07T20:27:51;8.97;;;4.70;;
20772;SDS011;10546;50.674;4.616;2024-01-07T20:30:17;5.07;;;3.50;;
20772;SDS011;10546;50.674;4.616;2024-01-07T20:32:43;8.13;;;4.33;;
20772;SDS011;10546;50.674;4.616;2024-01-07T20:35:09;6.27;;;4.37;;
20772;SDS011;10546;50.674;4.616;2024-01-07T20:37:35;6.63;;;4.43;;
20772;SDS011;10546;50.674;4.616;2024-01-07T20:40:06;10.53;;;6.07;;
20772;SDS011;10546;50.674;4.616;2024-01-07T20:42:35;9.03;;;3.83;;
20772;SDS011;10546;50.674;4.616;2024-01-07T20:45:01;6.53;;;4.43;;
20772;SDS011;10546;50.674;4.616;2024-01-07T20:47:27;5.43;;;2.90;;
20772;SDS011;10546;50.674;4.616;2024-01-07T20:49:52;12.60;;;6.43;;
20772;SDS011;10546;50.674;4.616;2024-01-07T20:52:18;8.23;;;4.80;;
20772;SDS011;10546;50.674;4.616;2024-01-07T20:54:46;8.07;;;4.97;;
20772;SDS011;10546;50.674;4.616;2024-01-07T20:57:12;8.10;;;5.33;;
20772;SDS011;10546;50.674;4.616;2024-01-07T20:59:39;8.20;;;4.27;;
20772;SDS011;10546;50.674;4.616;2024-01-07T21:02:07;6.73;;;3.90;;
20772;SDS011;10546;50.674;4.616;2024-01-07T21:04:33;9.40;;;5.60;;
20772;SDS011;10546;50.674;4.616;2024-01-07T21:06:59;9.07;;;5.20;;
20772;SDS011;10546;50.674;4.616;2024-01-07T21:09:24;12.00;;;5.37;;
20772;SDS011;10546;50.674;4.616;2024-01-07T21:11:50;5.17;;;3.63;;
20772;SDS011;10546;50.674;4.616;2024-01-07T21:14:16;7.53;;;4.57;;
20772;SDS011;10546;50.674;4.616;2024-01-07T21:16:42;6.83;;;4.10;;
20772;SDS011;10546;50.674;4.616;2024-01-07T21:19:07;6.47;;;3.67;;
20772;SDS011;10546;50.674;4.616;2024-01-07T21:21:35;7.27;;;4.50;;
20772;SDS011;10546;50.674;4.616;2024-01-07T21:24:01;8.23;;;4.43;;
20772;SDS011;10546;50.674;4.616;2024-01-07T21:26:27;5.53;;;3.50;;
20772;SDS011;10546;50.674;4.616;2024-01-07T21:28:55;8.97;;;4.90;;
20772;SDS011;10546;50.674;4.616;2024-01-07T21:31:21;8.43;;;5.07;;
20772;SDS011;10546;50.674;4.616;2024-01-07T21:33:47;10.33;;;5.80;;
20772;SDS011;10546;50.674;4.616;2024-01-07T21:36:14;7.23;;;4.03;;
20772;SDS011;10546;50.674;4.616;2024-01-07T21:38:41;8.60;;;5.23;;
20772;SDS011;10546;50.674;4.616;2024-01-07T21:41:07;13.37;;;6.80;;
20772;SDS011;10546;50.674;4.616;2024-01-07T21:43:33;9.43;;;4.77;;
20772;SDS011;10546;50.674;4.616;2024-01-07T21:45:59;7.40;;;4.73;;
20772;SDS011;10546;50.674;4.616;2024-01-07T21:48:30;9.27;;;4.93;;
20772;SDS011;10546;50.674;4.616;2024-01-07T21:50:58;10.90;;;5.77;;
20772;SDS011;10546;50.674;4.616;2024-01-07T21:53:24;6.53;;;4.03;;
20772;SDS011;10546;50.674;4.616;2024-01-07T21:55:50;7.93;;;4.10;;
20772;SDS011;10546;50.674;4.616;2024-01-07T21:58:16;11.83;;;5.63;;
20772;SDS011;10546;50.674;4.616;2024-01-07T22:00:42;21.40;;;8.97;;
20772;SDS011;10546;50.674;4.616;2024-01-07T22:03:07;26.43;;;10.93;;
20772;SDS011;10546;50.674;4.616;2024-01-07T22:05:33;28.53;;;11.17;;
20772;SDS011;10546;50.674;4.616;2024-01-07T22:08:00;12.17;;;5.63;;
20772;SDS011;10546;50.674;4.616;2024-01-07T22:10:26;8.03;;;4.43;;
20772;SDS011;10546;50.674;4.616;2024-01-07T22:12:51;9.57;;;5.57;;
20772;SDS011;10546;50.674;4.616;2024-01-07T22:15:17;10.83;;;4.80;;
20772;SDS011;10546;50.674;4.616;2024-01-07T22:17:43;16.07;;;5.93;;
20772;SDS011;10546;50.674;4.616;2024-01-07T22:20:08;8.30;;;5.00;;
20772;SDS011;10546;50.674;4.616;2024-01-07T22:22:35;14.40;;;5.87;;